Time;durP1;ratioP1;P1;durP2;ratioP2;P2;SDS_P1;SDS_P2;PMS_P1;PMS_P2;Temp;Humidity;BMP_temperature;BMP_pressure;BME280_temperature;BME280_humidity;BME280_pressure;Samples;Min_cycle;Max_cycle;Signal;HPM_P1;HPM_P2
2021/11/19 00:01:53;;;;;;;21.83;18.27;;;1.90;99.90;;;;;;5055089;28;20041;-72
2021/11/19 00:04:20;;;;;;;31.50;18.88;;;1.80;99.90;;;;;;5055054;28;20473;-73
2021/11/19 00:06:46;;;;;;;19.40;17.42;;;1.80;99.90;;;;;;5054560;28;20055;-73
2021/11/19 00:09:12;;;;;;;19.80;17.80;;;1.80;99.90;;;;;;5070164;28;20028;-73
2021/11/19 00:11:43;;;;;;;29.23;17.55;;;1.80;99.90;;;;;;5054032;28;20037;-76
2021/11/19 00:14:09;;;;;;;20.93;18.90;;;1.70;99.90;;;;;;5054769;28;20036;-72
2021/11/19 00:16:37;;;;;;;24.77;20.30;;;1.80;99.90;;;;;;5073863;28;20029;-73
2021/11/19 00:19:04;;;;;;;30.95;21.48;;;1.80;99.90;;;;;;5057422;28;20036;-73
2021/11/19 00:21:32;;;;;;;24.25;21.65;;;1.80;99.90;;;;;;5053647;28;20406;-73
2021/11/19 00:23:59;;;;;;;24.20;21.15;;;1.80;99.90;;;;;;5036285;28;20025;-72
2021/11/19 00:26:26;;;;;;;23.85;19.88;;;1.70;99.90;;;;;;5053637;28;20033;-73
2021/11/19 00:28:54;;;;;;;19.05;17.13;;;1.70;99.90;;;;;;5059378;28;20237;-73
2021/11/19 00:31:23;;;;;;;23.92;18.98;;;1.70;99.90;;;;;;5084078;28;20053;-73
2021/11/19 00:33:51;;;;;;;19.30;17.25;;;1.70;99.90;;;;;;5073697;28;20482;-73
2021/11/19 00:36:20;;;;;;;20.33;18.00;;;1.60;99.90;;;;;;5071710;28;20051;-76
2021/11/19 00:38:49;;;;;;;28.10;17.83;;;1.60;99.90;;;;;;5074017;28;20032;-72
2021/11/19 00:41:15;;;;;;;20.08;18.08;;;1.60;99.90;;;;;;5073210;28;20040;-73
2021/11/19 00:43:43;;;;;;;21.10;18.38;;;1.70;99.90;;;;;;5073413;28;20040;-73
2021/11/19 00:46:10;;;;;;;19.20;17.10;;;1.70;99.90;;;;;;5083783;28;20036;-73
2021/11/19 00:48:40;;;;;;;22.45;18.80;;;1.60;99.90;;;;;;5073103;28;20466;-73
2021/11/19 00:51:23;;;;;;;26.38;19.05;;;1.60;99.90;;;;;;5073037;28;20497;-72
2021/11/19 00:53:52;;;;;;;20.67;18.65;;;1.60;99.90;;;;;;5073963;28;20039;-73
2021/11/19 00:56:25;;;;;;;26.05;20.08;;;1.60;99.90;;;;;;5072874;28;20043;-73
2021/11/19 00:58:52;;;;;;;21.00;18.88;;;1.60;99.90;;;;;;5073919;28;20033;-73
2021/11/19 01:01:23;;;;;;;20.75;18.77;;;1.60;99.90;;;;;;5071968;28;20040;-78
2021/11/19 01:03:49;;;;;;;19.40;15.02;;;1.60;99.90;;;;;;5072142;28;20127;-72
2021/11/19 01:06:16;;;;;;;19.77;17.67;;;1.60;99.90;;;;;;5076494;28;20028;-73
2021/11/19 01:08:50;;;;;;;19.75;17.67;;;1.60;99.90;;;;;;5079220;28;20388;-73
2021/11/19 01:11:20;;;;;;;19.33;17.15;;;1.60;99.90;;;;;;5080374;28;20056;-76
2021/11/19 01:13:50;;;;;;;18.80;16.85;;;1.60;99.90;;;;;;5072165;28;20051;-72
2021/11/19 01:16:22;;;;;;;15.85;14.38;;;1.70;99.90;;;;;;5073400;28;20361;-77
2021/11/19 01:18:54;;;;;;;28.88;22.25;;;1.80;99.90;;;;;;5089941;28;20036;-72
2021/11/19 01:21:23;;;;;;;31.00;26.42;;;1.90;99.90;;;;;;5087331;28;20045;-75
2021/11/19 01:23:49;;;;;;;27.38;21.98;;;1.80;99.90;;;;;;5077136;28;20461;-73
2021/11/19 01:26:21;;;;;;;22.10;19.90;;;1.90;99.90;;;;;;5087049;28;20041;-75
2021/11/19 01:28:50;;;;;;;25.50;22.03;;;1.90;99.90;;;;;;5080174;28;20053;-73
2021/11/19 01:31:22;;;;;;;27.00;22.67;;;2.10;99.90;;;;;;5078403;28;20063;-73
2021/11/19 01:33:52;;;;;;;24.38;21.85;;;2.20;99.90;;;;;;5084611;28;20036;-73
2021/11/19 01:36:27;;;;;;;26.92;24.13;;;2.30;99.90;;;;;;5082684;28;20063;-73
2021/11/19 01:39:25;;;;;;;28.02;25.00;;;2.40;99.90;;;;;;5058570;28;20401;-73
2021/11/19 01:42:10;;;;;;;32.78;26.73;;;2.50;99.90;;;;;;5083916;28;20048;-73
2021/11/19 01:45:00;;;;;;;28.15;24.35;;;2.50;99.90;;;;;;5074212;28;20649;-73
2021/11/19 01:47:29;;;;;;;26.17;23.25;;;2.60;99.90;;;;;;5069732;28;20052;-73
2021/11/19 01:49:58;;;;;;;31.17;25.08;;;2.70;99.90;;;;;;5079353;28;20047;-73
2021/11/19 01:52:34;;;;;;;29.27;26.13;;;2.80;99.90;;;;;;5071251;28;20047;-73
2021/11/19 01:55:32;;;;;;;26.92;24.05;;;3.00;99.90;;;;;;5088818;28;20044;-73
2021/11/19 01:58:15;;;;;;;26.10;23.70;;;3.00;99.90;;;;;;5067897;28;20047;-73
2021/11/19 02:01:03;;;;;;;27.92;24.50;;;3.10;99.90;;;;;;5071413;28;20052;-73
2021/11/19 02:03:35;;;;;;;28.85;25.92;;;3.20;99.90;;;;;;5076512;28;20389;-72
2021/11/19 02:06:09;;;;;;;30.70;25.95;;;3.30;99.90;;;;;;5086559;28;20045;-73
2021/11/19 02:08:41;;;;;;;31.58;25.98;;;3.30;99.90;;;;;;5074267;28;20362;-73
2021/11/19 02:11:39;;;;;;;26.58;24.00;;;3.40;99.90;;;;;;5084531;28;20048;-74
2021/11/19 02:14:40;;;;;;;24.95;22.52;;;3.40;99.90;;;;;;5071099;28;20052;-73
2021/11/19 02:17:09;;;;;;;29.60;26.27;;;3.40;99.90;;;;;;5087014;28;20048;-73
2021/11/19 02:19:45;;;;;;;31.80;26.00;;;3.50;99.90;;;;;;5070595;28;20068;-73
2021/11/19 02:22:17;;;;;;;33.63;28.00;;;3.70;99.90;;;;;;5053975;28;20048;-73
2021/11/19 02:24:45;;;;;;;40.05;31.70;;;3.80;99.90;;;;;;5071699;28;20055;-73
2021/11/19 02:27:29;;;;;;;35.60;30.98;;;3.90;99.90;;;;;;5076553;28;20041;-73
2021/11/19 02:30:00;;;;;;;43.67;30.70;;;4.00;99.90;;;;;;5072783;28;20044;-73
2021/11/19 02:32:34;;;;;;;35.80;31.83;;;4.00;99.90;;;;;;5083312;28;20466;-73
2021/11/19 02:35:01;;;;;;;43.05;31.35;;;4.10;99.90;;;;;;5087132;28;20040;-73
2021/11/19 02:37:58;;;;;;;33.42;30.00;;;4.10;99.90;;;;;;5078983;28;20028;-73
2021/11/19 02:40:29;;;;;;;34.63;30.85;;;4.20;99.90;;;;;;5060239;28;20062;-73
2021/11/19 02:42:59;;;;;;;33.33;29.50;;;4.10;99.90;;;;;;5083129;28;20044;-72
2021/11/19 02:45:34;;;;;;;35.03;28.17;;;4.20;99.90;;;;;;5086459;28;20048;-73
2021/11/19 02:48:03;;;;;;;34.03;30.50;;;4.20;99.90;;;;;;5070799;28;20036;-73
2021/11/19 02:50:31;;;;;;;32.33;28.90;;;4.20;99.90;;;;;;5076428;28;20491;-73
2021/11/19 02:52:59;;;;;;;35.38;29.92;;;4.20;99.90;;;;;;5079619;28;20047;-74
2021/11/19 02:55:30;;;;;;;35.63;28.05;;;4.20;99.90;;;;;;5088977;28;20047;-73
2021/11/19 02:57:57;;;;;;;;;;;4.20;99.90;;;;;;5083279;28;20044;-73
2021/11/19 03:00:31;;;;;;;31.70;27.02;;;4.20;99.90;;;;;;5071455;28;19912;-74
2021/11/19 03:02:58;;;;;;;31.63;27.55;;;4.20;99.90;;;;;;5072523;28;20029;-73
2021/11/19 03:05:28;;;;;;;34.28;28.45;;;4.20;99.90;;;;;;5069599;28;20041;-74
2021/11/19 03:07:56;;;;;;;42.20;29.45;;;4.20;99.90;;;;;;5070346;28;20043;-73
2021/11/19 03:10:27;;;;;;;41.05;29.15;;;4.20;99.90;;;;;;5069613;28;20398;-76
2021/11/19 03:12:54;;;;;;;31.42;27.77;;;4.30;99.90;;;;;;5084556;28;20051;-73
2021/11/19 03:15:29;;;;;;;35.55;27.90;;;4.30;99.90;;;;;;5091050;28;20043;-76
2021/11/19 03:17:56;;;;;;;41.28;28.75;;;4.20;99.90;;;;;;5086642;28;20048;-72
2021/11/19 03:20:25;;;;;;;34.67;30.02;;;4.20;99.90;;;;;;5073383;28;20041;-75
2021/11/19 03:22:52;;;;;;;32.13;28.27;;;4.20;99.90;;;;;;5081290;28;20054;-73
2021/11/19 03:25:26;;;;;;;34.08;28.95;;;4.20;99.90;;;;;;5077718;28;20044;-75
2021/11/19 03:27:55;;;;;;;31.42;28.08;;;4.20;99.90;;;;;;5086868;28;20037;-73
2021/11/19 03:30:28;;;;;;;40.00;29.85;;;4.20;99.90;;;;;;5044673;28;20072;-73
2021/11/19 03:32:55;;;;;;;31.45;28.27;;;4.20;99.90;;;;;;5036833;28;20051;-73
2021/11/19 03:35:23;;;;;;;33.00;29.50;;;4.30;99.90;;;;;;5037143;28;20044;-75
2021/11/19 03:37:51;;;;;;;34.90;28.75;;;4.30;99.90;;;;;;5037672;28;20134;-73
2021/11/19 03:40:21;;;;;;;37.25;29.15;;;4.30;99.90;;;;;;5020855;28;20033;-73
2021/11/19 03:42:50;;;;;;;33.85;27.73;;;4.30;99.90;;;;;;5036846;28;20101;-73
2021/11/19 03:45:21;;;;;;;34.70;27.50;;;4.30;99.90;;;;;;5036899;28;20041;-73
2021/11/19 03:47:51;;;;;;;30.25;26.92;;;4.30;99.90;;;;;;5039967;28;20040;-73
2021/11/19 03:50:43;;;;;;;34.08;28.63;;;4.40;99.90;;;;;;5064450;28;20040;-73
2021/11/19 03:53:12;;;;;;;34.08;28.10;;;4.40;99.90;;;;;;5036946;28;20041;-73
2021/11/19 03:55:46;;;;;;;33.17;29.65;;;4.30;99.90;;;;;;5035642;28;20382;-73
2021/11/19 03:58:19;;;;;;;38.80;29.52;;;4.40;99.90;;;;;;5043854;28;20041;-73
2021/11/19 04:00:50;;;;;;;36.92;30.42;;;4.40;99.90;;;;;;5046885;28;20055;-74
2021/11/19 04:03:19;;;;;;;36.42;28.52;;;4.40;99.90;;;;;;5052030;28;20037;-73
2021/11/19 04:05:47;;;;;;;42.80;30.67;;;4.40;99.90;;;;;;5036590;28;20064;-73
2021/11/19 04:08:14;;;;;;;35.47;28.13;;;4.40;99.90;;;;;;5049608;28;20041;-73
2021/11/19 04:10:50;;;;;;;41.28;29.00;;;4.40;99.90;;;;;;5056276;28;20398;-73
2021/11/19 04:13:17;;;;;;;33.72;28.05;;;4.30;99.90;;;;;;5047138;28;20041;-73
2021/11/19 04:15:53;;;;;;;32.38;27.00;;;4.30;99.90;;;;;;5039902;28;20037;-72
2021/11/19 04:18:19;;;;;;;35.75;28.00;;;4.30;99.90;;;;;;5054396;28;20044;-72
2021/11/19 04:20:48;;;;;;;31.10;26.48;;;4.30;99.90;;;;;;5057007;28;20120;-73
2021/11/19 04:23:15;;;;;;;32.33;27.02;;;4.30;99.90;;;;;;5049496;28;20051;-73
2021/11/19 04:25:43;;;;;;;33.13;29.45;;;4.40;99.90;;;;;;5033964;28;20044;-73
2021/11/19 04:28:12;;;;;;;33.08;27.30;;;4.40;99.90;;;;;;5035675;28;20041;-73
2021/11/19 04:30:57;;;;;;;34.97;27.58;;;4.30;99.90;;;;;;5060468;28;20072;-73
2021/11/19 04:33:26;;;;;;;33.22;26.40;;;4.30;99.90;;;;;;5025068;28;20044;-73
2021/11/19 04:35:54;;;;;;;30.52;27.23;;;4.30;99.90;;;;;;5042098;28;20052;-73
2021/11/19 04:38:23;;;;;;;31.25;26.63;;;4.40;99.90;;;;;;5042371;28;20052;-73
2021/11/19 04:40:52;;;;;;;26.10;21.15;;;4.30;99.90;;;;;;5054165;28;20501;-73
2021/11/19 04:43:20;;;;;;;28.20;24.98;;;4.30;99.90;;;;;;5040882;28;20052;-73
2021/11/19 04:45:46;;;;;;;36.38;26.50;;;4.30;99.90;;;;;;5055109;28;20044;-72
2021/11/19 04:48:12;;;;;;;31.55;26.52;;;4.40;99.90;;;;;;5036721;28;20048;-73
2021/11/19 04:50:42;;;;;;;38.50;28.30;;;4.40;99.90;;;;;;5052544;28;20040;-73
2021/11/19 04:53:10;;;;;;;29.38;26.25;;;4.40;99.90;;;;;;5034968;28;20037;-74
2021/11/19 04:55:37;;;;;;;29.52;26.35;;;4.40;99.90;;;;;;5021791;28;20041;-73
2021/11/19 04:58:06;;;;;;;34.17;27.60;;;4.40;99.90;;;;;;5034710;28;20041;-73
2021/11/19 05:00:38;;;;;;;28.38;25.38;;;4.40;99.90;;;;;;5034631;28;20049;-73
2021/11/19 05:03:23;;;;;;;30.23;26.73;;;4.40;99.90;;;;;;5053610;28;20048;-76
2021/11/19 05:05:50;;;;;;;31.30;27.67;;;4.40;99.90;;;;;;5053425;28;20032;-73
2021/11/19 05:08:17;;;;;;;39.85;27.10;;;4.40;99.90;;;;;;5034877;28;20045;-73
2021/11/19 05:10:46;;;;;;;32.28;26.70;;;4.40;99.90;;;;;;5034511;28;20625;-73
2021/11/19 05:13:14;;;;;;;30.25;27.00;;;4.40;99.90;;;;;;5025020;28;20047;-73
2021/11/19 05:15:59;;;;;;;38.13;28.33;;;4.50;99.90;;;;;;5051094;28;20041;-72
2021/11/19 05:18:27;;;;;;;31.30;27.65;;;4.40;99.90;;;;;;5053395;28;20040;-72
2021/11/19 05:20:55;;;;;;;32.22;27.42;;;4.50;99.90;;;;;;5044886;28;20052;-72
2021/11/19 05:23:24;;;;;;;32.72;25.80;;;4.50;99.90;;;;;;5052973;28;20033;-74
2021/11/19 05:25:51;;;;;;;33.83;28.27;;;4.50;99.90;;;;;;5031290;28;20052;-72
2021/11/19 05:28:20;;;;;;;39.17;25.60;;;4.50;99.90;;;;;;5035107;28;20374;-72
2021/11/19 05:30:50;;;;;;;30.70;26.38;;;4.50;99.90;;;;;;5032064;28;20398;-73
2021/11/19 05:33:19;;;;;;;37.15;26.58;;;4.50;99.90;;;;;;5054014;28;20474;-73
2021/11/19 05:35:47;;;;;;;35.03;26.75;;;4.50;99.90;;;;;;5034396;28;20052;-73
2021/11/19 05:38:14;;;;;;;29.63;25.98;;;4.50;99.90;;;;;;5036635;28;20037;-73
2021/11/19 05:40:40;;;;;;;35.42;27.00;;;4.60;99.90;;;;;;5053500;28;20040;-73
2021/11/19 05:43:07;;;;;;;35.28;27.15;;;4.60;99.90;;;;;;5042667;28;20037;-73
2021/11/19 05:45:53;;;;;;;31.35;25.65;;;4.60;99.90;;;;;;5052451;28;20044;-72
2021/11/19 05:48:25;;;;;;;34.63;27.17;;;4.60;99.90;;;;;;5034500;28;20040;-72
2021/11/19 05:50:52;;;;;;;32.90;27.33;;;4.60;99.90;;;;;;5036099;28;20724;-80
2021/11/19 05:53:20;;;;;;;30.85;26.90;;;4.70;99.90;;;;;;5054426;28;20048;-76
2021/11/19 05:55:48;;;;;;;31.40;28.00;;;4.70;99.90;;;;;;5036756;28;20037;-77
2021/11/19 05:58:17;;;;;;;38.92;28.73;;;4.70;99.90;;;;;;5042111;28;20048;-76
2021/11/19 06:00:53;;;;;;;42.17;32.17;;;4.70;99.90;;;;;;5041797;28;20049;-76
2021/11/19 06:03:32;;;;;;;34.10;29.55;;;4.70;99.90;;;;;;5034333;28;20041;-75
2021/11/19 06:06:09;;;;;;;41.03;27.23;;;4.70;99.90;;;;;;5052213;28;20032;-76
2021/11/19 06:09:05;;;;;;;80.07;64.43;;;4.70;99.90;;;;;;5045224;28;20063;-75
2021/11/19 06:11:37;;;;;;;42.10;29.98;;;4.70;99.90;;;;;;5033546;28;20045;-75
2021/11/19 06:14:09;;;;;;;36.00;28.05;;;4.70;99.90;;;;;;5052788;28;20037;-75
2021/11/19 06:16:43;;;;;;;35.88;31.65;;;4.80;99.90;;;;;;5034145;28;20040;-75
2021/11/19 06:19:15;;;;;;;77.43;68.70;;;4.80;99.90;;;;;;5052985;28;20044;-75
2021/11/19 06:21:44;;;;;;;58.10;49.72;;;4.80;99.90;;;;;;5042701;28;20040;-76
2021/11/19 06:24:15;;;;;;;60.67;49.97;;;4.80;99.90;;;;;;5049364;28;20041;-76
2021/11/19 06:26:44;;;;;;;139.95;113.75;;;4.80;99.90;;;;;;5048779;28;20474;-77
2021/11/19 06:29:12;;;;;;;64.07;49.72;;;4.80;99.90;;;;;;5051404;28;20051;-76
2021/11/19 06:31:43;;;;;;;39.60;28.30;;;4.80;99.90;;;;;;5076777;28;20044;-75
2021/11/19 06:34:10;;;;;;;71.75;58.85;;;4.80;99.90;;;;;;5084975;28;20493;-76
2021/11/19 06:36:40;;;;;;;68.18;49.67;;;4.80;99.90;;;;;;5075266;28;20052;-76
2021/11/19 06:39:08;;;;;;;;;;;4.80;99.90;;;;;;5074957;28;20047;-76
2021/11/19 06:41:34;;;;;;;192.23;152.93;;;4.90;99.90;;;;;;5078812;28;19909;-78
2021/11/19 06:44:24;;;;;;;62.72;48.13;;;4.90;99.90;;;;;;5064555;28;20032;-79
2021/11/19 06:47:09;;;;;;;129.27;102.88;;;4.90;99.90;;;;;;5070840;28;20043;-75
2021/11/19 06:49:39;;;;;;;35.13;30.00;;;4.90;99.90;;;;;;5087753;28;20047;-77
2021/11/19 06:52:32;;;;;;;107.45;89.68;;;4.90;99.90;;;;;;5096647;28;20040;-76
2021/11/19 06:55:19;;;;;;;40.72;35.08;;;5.00;99.90;;;;;;5074103;28;20047;-76
2021/11/19 06:58:12;;;;;;;59.47;52.05;;;5.00;99.90;;;;;;5077445;28;20036;-75
2021/11/19 07:00:42;;;;;;;40.08;32.72;;;5.00;99.90;;;;;;5094955;28;20036;-76
2021/11/19 07:03:10;;;;;;;36.65;27.50;;;5.10;99.90;;;;;;5096885;28;20411;-76
2021/11/19 07:05:38;;;;;;;67.05;59.38;;;5.00;99.90;;;;;;5088012;28;20040;-76
2021/11/19 07:08:07;;;;;;;33.95;30.27;;;5.10;99.90;;;;;;5085040;28;20028;-76
2021/11/19 07:10:34;;;;;;;42.28;32.08;;;5.10;99.90;;;;;;5083730;28;20051;-76
2021/11/19 07:13:01;;;;;;;76.97;68.22;;;5.10;99.90;;;;;;5074192;28;20043;-76
2021/11/19 07:15:32;;;;;;;;;;;5.20;99.90;;;;;;5084952;28;20049;-76
2021/11/19 07:17:59;;;;;;;37.72;33.67;;;5.20;99.90;;;;;;5071818;28;19916;-76
2021/11/19 07:20:28;;;;;;;72.40;61.30;;;5.20;99.90;;;;;;5082185;28;20052;-76
2021/11/19 07:22:56;;;;;;;101.28;89.43;;;5.20;99.90;;;;;;5083448;28;20473;-76
2021/11/19 07:25:24;;;;;;;113.05;90.05;;;5.30;99.90;;;;;;5069213;28;20033;-77
2021/11/19 07:27:56;;;;;;;161.50;127.22;;;5.30;99.90;;;;;;5080007;28;20044;-76
2021/11/19 07:30:39;;;;;;;46.33;35.22;;;5.40;99.90;;;;;;5083615;28;20048;-76
2021/11/19 07:33:11;;;;;;;70.97;59.10;;;5.40;99.90;;;;;;5080605;28;20044;-77
2021/11/19 07:35:39;;;;;;;37.65;28.98;;;5.40;99.90;;;;;;5080546;28;20048;-77
2021/11/19 07:38:26;;;;;;;56.33;49.53;;;5.40;99.90;;;;;;5089367;28;20044;-78
2021/11/19 07:41:30;;;;;;;95.60;82.57;;;5.50;99.90;;;;;;5023909;28;20045;-77
2021/11/19 07:44:20;;;;;;;46.67;36.20;;;5.50;99.90;;;;;;5031796;28;20518;-77
2021/11/19 07:46:51;;;;;;;35.53;30.02;;;5.60;99.90;;;;;;5059459;28;20040;-77
2021/11/19 07:49:18;;;;;;;57.08;43.75;;;5.60;99.90;;;;;;5073383;28;20397;-78
2021/11/19 07:51:48;;;;;;;39.13;34.72;;;5.60;99.90;;;;;;5074443;28;20056;-77
2021/11/19 07:54:15;;;;;;;33.92;29.13;;;5.70;99.90;;;;;;5088410;28;20045;-77
2021/11/19 07:56:43;;;;;;;51.55;40.95;;;5.70;99.90;;;;;;5087218;28;20394;-77
2021/11/19 07:59:21;;;;;;;37.60;26.77;;;5.80;99.90;;;;;;5076805;28;20036;-77
2021/11/19 08:01:48;;;;;;;41.30;31.15;;;5.80;99.90;;;;;;5076999;28;20044;-77
2021/11/19 08:04:15;;;;;;;34.15;28.77;;;5.80;99.90;;;;;;5084395;28;20044;-77
2021/11/19 08:06:45;;;;;;;35.85;27.50;;;5.80;99.90;;;;;;5082573;28;20040;-77
2021/11/19 08:09:44;;;;;;;47.40;38.78;;;5.80;99.90;;;;;;5069530;28;20044;-77
2021/11/19 08:12:21;;;;;;;46.22;39.03;;;5.90;99.90;;;;;;5088811;28;20040;-76
2021/11/19 08:15:03;;;;;;;73.45;62.35;;;5.90;99.90;;;;;;5077451;28;20409;-76
2021/11/19 08:17:39;;;;;;;164.35;140.88;;;5.90;99.90;;;;;;5072213;28;20401;-77
2021/11/19 08:20:20;;;;;;;45.47;34.40;;;5.90;99.90;;;;;;5091079;28;20502;-76
2021/11/19 08:22:46;;;;;;;139.77;124.80;;;5.90;99.90;;;;;;5082886;28;20739;-76
2021/11/19 08:25:14;;;;;;;48.20;39.28;;;5.90;99.90;;;;;;5074274;28;20032;-77
2021/11/19 08:27:44;;;;;;;141.48;123.93;;;5.90;99.90;;;;;;5073782;28;20040;-77
2021/11/19 08:30:18;;;;;;;;;;;5.90;99.90;;;;;;5053883;28;20053;-77
2021/11/19 08:32:44;;;;;;;80.97;61.13;;;6.00;99.90;;;;;;5053558;28;19913;-77
2021/11/19 08:35:11;;;;;;;83.20;67.45;;;6.00;99.90;;;;;;5058682;28;20033;-77
2021/11/19 08:37:40;;;;;;;108.85;77.68;;;6.00;99.90;;;;;;5034877;28;20498;-76
2021/11/19 08:40:10;;;;;;;55.55;39.50;;;6.00;99.90;;;;;;5060059;28;20020;-77
2021/11/19 08:42:38;;;;;;;53.53;39.47;;;6.10;99.90;;;;;;5058785;28;20393;-77
2021/11/19 08:45:06;;;;;;;40.55;33.00;;;6.10;99.90;;;;;;5067760;28;20036;-76
2021/11/19 08:47:32;;;;;;;50.33;36.13;;;6.10;99.90;;;;;;5065486;28;20032;-77
2021/11/19 08:50:02;;;;;;;46.38;34.38;;;6.20;99.90;;;;;;5059015;28;20414;-76
2021/11/19 08:52:28;;;;;;;58.75;43.85;;;6.20;99.90;;;;;;5055329;28;20470;-77
2021/11/19 08:54:54;;;;;;;301.00;249.02;;;6.30;99.90;;;;;;5054372;28;20033;-77
2021/11/19 08:57:24;;;;;;;48.38;36.08;;;6.30;99.90;;;;;;5053355;28;20037;-77
2021/11/19 08:59:51;;;;;;;98.40;81.65;;;6.40;99.90;;;;;;5035148;28;20040;-77
2021/11/19 09:02:21;;;;;;;50.67;41.17;;;6.40;99.90;;;;;;5035525;28;20056;-76
2021/11/19 09:04:48;;;;;;;47.72;38.40;;;6.50;99.90;;;;;;5052854;28;20040;-76
2021/11/19 09:07:15;;;;;;;47.63;38.20;;;6.60;99.90;;;;;;5046010;28;20482;-78
2021/11/19 09:09:43;;;;;;;50.95;45.03;;;6.60;99.90;;;;;;5052764;28;20032;-76
2021/11/19 09:12:10;;;;;;;78.72;70.07;;;6.70;99.90;;;;;;5054594;28;20044;-76
2021/11/19 09:14:37;;;;;;;49.85;42.45;;;6.70;99.90;;;;;;5061327;28;20033;-77
2021/11/19 09:17:21;;;;;;;63.80;46.50;;;6.80;99.90;;;;;;5066795;28;20041;-76
2021/11/19 09:20:03;;;;;;;44.03;35.65;;;6.90;99.90;;;;;;5065492;28;20381;-76
2021/11/19 09:22:41;;;;;;;50.17;44.72;;;6.90;99.90;;;;;;5054511;28;20051;-76
2021/11/19 09:25:13;;;;;;;41.95;31.55;;;7.00;99.90;;;;;;5057618;28;20417;-76
2021/11/19 09:27:40;;;;;;;48.28;42.30;;;7.00;99.90;;;;;;5052572;28;20035;-76
2021/11/19 09:30:19;;;;;;;40.80;31.95;;;7.10;99.90;;;;;;5067651;28;20044;-77
2021/11/19 09:32:49;;;;;;;43.70;34.70;;;7.10;99.90;;;;;;5081845;28;20032;-76
2021/11/19 09:35:19;;;;;;;38.10;28.42;;;7.20;99.90;;;;;;5083282;28;20401;-76
2021/11/19 09:37:48;;;;;;;41.88;31.17;;;7.20;99.90;;;;;;5082983;28;20029;-76
2021/11/19 09:40:16;;;;;;;34.47;28.15;;;7.20;99.90;;;;;;5072392;28;20032;-76
2021/11/19 09:43:03;;;;;;;31.10;26.65;;;7.30;99.90;;;;;;5072563;28;20385;-76
2021/11/19 09:45:50;;;;;;;36.50;32.40;;;7.30;99.90;;;;;;5085524;28;20046;-76
2021/11/19 09:48:49;;;;;;;39.53;35.10;;;7.20;99.90;;;;;;5081656;28;20028;-76
2021/11/19 09:51:53;;;;;;;44.47;31.05;;;7.20;99.90;;;;;;5072554;28;20028;-77
2021/11/19 09:54:31;;;;;;;42.03;37.53;;;7.20;99.90;;;;;;5077744;28;20033;-73
2021/11/19 09:57:03;;;;;;;48.70;43.63;;;7.30;99.90;;;;;;5072217;28;20032;-73
2021/11/19 10:00:17;;;;;;;47.25;38.75;;;7.30;99.90;;;;;;5071538;28;20036;-73
2021/11/19 10:03:21;;;;;;;44.05;31.55;;;7.30;99.90;;;;;;5052365;28;20480;-73
2021/11/19 10:06:07;;;;;;;39.05;34.92;;;7.30;99.90;;;;;;5071641;28;20055;-74
2021/11/19 10:08:57;;;;;;;39.58;34.10;;;7.40;99.90;;;;;;5071473;28;20024;-73
2021/11/19 10:11:32;;;;;;;42.95;28.38;;;7.40;99.90;;;;;;5079928;28;20044;-72
2021/11/19 10:14:20;;;;;;;37.22;27.63;;;7.40;99.90;;;;;;5071610;28;20048;-73
2021/11/19 10:16:49;;;;;;;41.47;30.60;;;7.40;99.90;;;;;;5071613;28;20035;-73
2021/11/19 10:19:26;;;;;;;40.13;28.90;;;7.40;99.90;;;;;;5072133;28;20377;-77
2021/11/19 10:22:14;;;;;;;28.05;24.70;;;7.30;99.90;;;;;;5071624;28;20033;-76
2021/11/19 10:24:47;;;;;;;33.50;29.88;;;7.40;99.90;;;;;;5081501;28;20028;-76
2021/11/19 10:27:20;;;;;;;27.92;25.08;;;7.40;99.90;;;;;;5083678;28;20025;-76
2021/11/19 10:29:52;;;;;;;30.15;27.05;;;7.40;99.90;;;;;;5060222;28;20132;-76
2021/11/19 10:32:22;;;;;;;31.67;26.63;;;7.40;99.90;;;;;;5055428;28;20059;-76
2021/11/19 10:34:48;;;;;;;35.70;31.35;;;7.50;99.90;;;;;;5055521;28;20028;-73
2021/11/19 10:37:17;;;;;;;42.00;28.98;;;7.50;99.90;;;;;;5065681;28;20032;-77
2021/11/19 10:40:04;;;;;;;43.70;27.75;;;7.60;99.90;;;;;;5060922;28;20052;-74
2021/11/19 10:43:12;;;;;;;34.38;22.67;;;7.60;99.90;;;;;;5066666;28;20037;-74
2021/11/19 10:46:00;;;;;;;22.58;19.00;;;7.60;99.90;;;;;;5050127;28;20029;-74
2021/11/19 10:48:41;;;;;;;24.08;19.85;;;7.50;99.90;;;;;;5056066;28;20040;-75
2021/11/19 10:51:42;;;;;;;20.13;16.92;;;7.50;99.90;;;;;;5047353;28;20045;-74
2021/11/19 10:54:25;;;;;;;25.98;17.67;;;7.60;99.90;;;;;;5035568;28;20068;-81
2021/11/19 10:57:09;;;;;;;21.30;16.95;;;7.60;99.90;;;;;;5055170;28;20041;-74
2021/11/19 10:59:43;;;;;;;21.40;18.02;;;7.60;99.90;;;;;;5054669;28;20044;-74
2021/11/19 11:02:32;;;;;;;17.23;15.43;;;7.60;99.90;;;;;;5070053;28;20047;-73
2021/11/19 11:05:00;;;;;;;34.28;17.92;;;7.70;99.90;;;;;;5055259;28;20052;-73
2021/11/19 11:07:30;;;;;;;22.65;17.25;;;7.70;99.90;;;;;;5055724;28;20413;-74
2021/11/19 11:10:03;;;;;;;25.48;16.55;;;7.70;99.90;;;;;;5054712;28;20029;-75
2021/11/19 11:12:34;;;;;;;19.65;16.67;;;7.70;99.90;;;;;;5054915;28;20037;-75
2021/11/19 11:15:46;;;;;;;21.98;16.73;;;7.70;99.90;;;;;;5039110;28;20063;-76
2021/11/19 11:18:14;;;;;;;17.17;15.57;;;7.80;99.90;;;;;;5055948;28;20038;-76
2021/11/19 11:20:53;;;;;;;18.65;16.73;;;7.80;99.90;;;;;;5043065;28;20033;-79
2021/11/19 11:23:22;;;;;;;18.55;15.48;;;7.80;99.90;;;;;;5036226;28;20051;-77
2021/11/19 11:26:06;;;;;;;21.00;13.88;;;7.80;99.90;;;;;;5038139;28;20386;-78
2021/11/19 11:28:48;;;;;;;16.35;14.57;;;7.80;99.90;;;;;;5058691;28;20048;-79
2021/11/19 11:31:51;;;;;;;17.60;15.57;;;7.80;99.90;;;;;;5074131;28;20474;-78
2021/11/19 11:34:38;;;;;;;20.55;15.02;;;7.80;99.90;;;;;;5058093;28;20045;-78
2021/11/19 11:37:17;;;;;;;17.92;15.63;;;7.70;99.90;;;;;;5055408;28;20029;-80
2021/11/19 11:39:44;;;;;;;18.00;16.20;;;7.80;99.90;;;;;;5054989;28;20036;-80
2021/11/19 11:42:39;;;;;;;17.38;15.65;;;7.80;99.90;;;;;;5062165;28;20089;-81
2021/11/19 11:45:44;;;;;;;17.65;14.55;;;7.80;99.90;;;;;;5054181;28;20469;-78
2021/11/19 11:48:21;;;;;;;17.48;14.82;;;7.80;99.90;;;;;;5054559;28;20063;-79
2021/11/19 11:51:01;;;;;;;20.85;15.73;;;7.80;99.90;;;;;;5035956;28;20045;-78
2021/11/19 11:53:45;;;;;;;17.02;15.23;;;7.80;99.90;;;;;;5068269;28;20040;-78
2021/11/19 11:56:24;;;;;;;18.17;16.27;;;7.90;99.90;;;;;;5069524;28;20024;-77
2021/11/19 11:58:53;;;;;;;18.52;15.73;;;7.90;99.90;;;;;;5065168;28;20036;-76
2021/11/19 12:01:44;;;;;;;19.05;15.38;;;7.90;99.90;;;;;;5054528;28;20048;-78
2021/11/19 12:04:26;;;;;;;19.80;15.45;;;7.80;99.90;;;;;;5054820;28;20047;-77
2021/11/19 12:07:30;;;;;;;19.20;14.75;;;7.90;99.90;;;;;;5055349;28;20029;-78
2021/11/19 12:10:17;;;;;;;15.55;14.15;;;7.90;99.90;;;;;;5069239;28;20029;-77
2021/11/19 12:13:04;;;;;;;16.10;14.57;;;7.90;99.90;;;;;;5053811;28;20037;-77
2021/11/19 12:15:49;;;;;;;15.55;14.02;;;8.00;99.90;;;;;;5036639;28;20479;-76
2021/11/19 12:18:44;;;;;;;14.38;12.93;;;8.00;99.90;;;;;;5054019;28;20025;-77
2021/11/19 12:21:51;;;;;;;19.70;13.38;;;8.00;99.90;;;;;;5008725;28;20041;-78
2021/11/19 12:24:29;;;;;;;14.90;12.98;;;8.00;99.90;;;;;;5053844;28;20055;-79
2021/11/19 12:27:12;;;;;;;15.23;12.90;;;8.00;99.90;;;;;;5053900;28;20482;-78
2021/11/19 12:29:47;;;;;;;16.83;13.98;;;8.10;99.90;;;;;;5066489;28;20481;-79
2021/11/19 12:32:30;;;;;;;17.20;13.10;;;8.10;99.90;;;;;;5039052;28;20055;-76
2021/11/19 12:35:02;;;;;;;15.13;12.77;;;8.10;99.90;;;;;;5053735;28;20052;-76
2021/11/19 12:37:57;;;;;;;17.23;13.25;;;8.00;99.90;;;;;;5053579;28;20040;-76
2021/11/19 12:40:41;;;;;;;23.10;14.30;;;8.00;99.90;;;;;;5064699;28;20040;-77
2021/11/19 12:43:46;;;;;;;21.50;13.98;;;8.10;99.90;;;;;;5072199;28;20035;-77
2021/11/19 12:46:34;;;;;;;18.63;13.88;;;8.10;99.90;;;;;;5052710;28;20466;-77
2021/11/19 12:49:03;;;;;;;23.73;14.15;;;8.10;99.90;;;;;;5067980;28;20374;-77
2021/11/19 12:51:40;;;;;;;15.50;13.05;;;8.10;99.90;;;;;;5060173;28;20052;-78
2021/11/19 12:54:15;;;;;;;20.05;13.40;;;8.10;99.90;;;;;;5035097;28;20465;-77
2021/11/19 12:57:18;;;;;;;15.48;13.63;;;8.10;99.90;;;;;;5035024;28;20056;-76
2021/11/19 12:59:51;;;;;;;14.05;11.82;;;8.10;99.90;;;;;;5053361;28;20384;-78
2021/11/19 13:02:35;;;;;;;16.45;13.35;;;8.10;99.90;;;;;;5053711;28;20041;-79
2021/11/19 13:05:07;;;;;;;14.13;12.95;;;8.10;99.90;;;;;;5053584;28;20024;-77
2021/11/19 13:07:46;;;;;;;14.80;13.30;;;8.10;99.90;;;;;;5052437;28;20033;-76
2021/11/19 13:10:15;;;;;;;13.32;11.98;;;8.10;99.90;;;;;;5074520;28;20032;-77
2021/11/19 13:13:16;;;;;;;13.23;12.00;;;8.10;99.90;;;;;;5058692;28;20482;-76
2021/11/19 13:15:47;;;;;;;9.68;8.85;;;8.10;99.90;;;;;;5062326;28;20048;-76
2021/11/19 13:18:13;;;;;;;12.77;11.48;;;8.10;99.90;;;;;;5055101;28;20025;-78